sensor_id;sensor_type;location;lat;lon;timestamp;P1;durP1;ratioP1;P2;durP2;ratioP2
36995;SDS011;22905;50.340;10.776;2023-04-06T00:01:18;17.25;;;9.95;;
36995;SDS011;22905;50.340;10.776;2023-04-06T00:06:18;32.67;;;13.37;;
36995;SDS011;22905;50.340;10.776;2023-04-06T00:11:18;24.87;;;10.50;;
36995;SDS011;22905;50.340;10.776;2023-04-06T00:16:19;16.75;;;8.10;;
36995;SDS011;22905;50.340;10.776;2023-04-06T00:21:20;13.57;;;7.07;;
36995;SDS011;22905;50.340;10.776;2023-04-06T00:26:20;12.93;;;6.30;;
36995;SDS011;22905;50.340;10.776;2023-04-06T00:31:20;10.38;;;5.80;;
36995;SDS011;22905;50.340;10.776;2023-04-06T00:36:21;14.73;;;7.05;;
36995;SDS011;22905;50.340;10.776;2023-04-06T00:41:21;11.73;;;6.10;;
36995;SDS011;22905;50.340;10.776;2023-04-06T00:46:21;15.63;;;6.13;;
36995;SDS011;22905;50.340;10.776;2023-04-06T00:51:22;10.15;;;5.85;;
36995;SDS011;22905;50.340;10.776;2023-04-06T00:56:22;11.80;;;5.68;;
36995;SDS011;22905;50.340;10.776;2023-04-06T01:01:23;7.82;;;5.35;;
36995;SDS011;22905;50.340;10.776;2023-04-06T01:06:24;11.13;;;5.90;;
36995;SDS011;22905;50.340;10.776;2023-04-06T01:11:25;29.07;;;10.93;;
36995;SDS011;22905;50.340;10.776;2023-04-06T01:16:26;33.10;;;12.73;;
36995;SDS011;22905;50.340;10.776;2023-04-06T01:21:26;22.50;;;8.80;;
36995;SDS011;22905;50.340;10.776;2023-04-06T01:26:26;22.33;;;9.73;;
36995;SDS011;22905;50.340;10.776;2023-04-06T01:31:29;37.45;;;13.77;;
36995;SDS011;22905;50.340;10.776;2023-04-06T01:36:29;32.42;;;11.00;;
36995;SDS011;22905;50.340;10.776;2023-04-06T01:41:29;25.83;;;11.37;;
36995;SDS011;22905;50.340;10.776;2023-04-06T01:46:30;19.08;;;9.27;;
36995;SDS011;22905;50.340;10.776;2023-04-06T01:51:30;16.90;;;7.20;;
36995;SDS011;22905;50.340;10.776;2023-04-06T01:56:31;18.88;;;9.32;;
36995;SDS011;22905;50.340;10.776;2023-04-06T02:01:31;16.05;;;6.70;;
36995;SDS011;22905;50.340;10.776;2023-04-06T02:06:31;11.87;;;7.57;;
36995;SDS011;22905;50.340;10.776;2023-04-06T02:11:32;13.98;;;6.07;;
36995;SDS011;22905;50.340;10.776;2023-04-06T02:16:32;13.55;;;7.13;;
36995;SDS011;22905;50.340;10.776;2023-04-06T02:21:32;12.23;;;7.05;;
36995;SDS011;22905;50.340;10.776;2023-04-06T02:26:33;16.02;;;7.68;;
36995;SDS011;22905;50.340;10.776;2023-04-06T02:31:33;22.38;;;10.20;;
36995;SDS011;22905;50.340;10.776;2023-04-06T02:36:33;16.30;;;7.63;;
36995;SDS011;22905;50.340;10.776;2023-04-06T02:46:56;15.82;;;8.80;;
36995;SDS011;22905;50.340;10.776;2023-04-06T02:51:57;17.45;;;8.60;;
36995;SDS011;22905;50.340;10.776;2023-04-06T02:56:57;15.70;;;7.40;;
36995;SDS011;22905;50.340;10.776;2023-04-06T03:01:57;19.23;;;8.15;;
36995;SDS011;22905;50.340;10.776;2023-04-06T03:06:58;16.00;;;7.70;;
36995;SDS011;22905;50.340;10.776;2023-04-06T03:11:58;22.60;;;8.32;;
36995;SDS011;22905;50.340;10.776;2023-04-06T03:16:58;15.40;;;7.82;;
36995;SDS011;22905;50.340;10.776;2023-04-06T03:21:59;14.45;;;8.10;;
36995;SDS011;22905;50.340;10.776;2023-04-06T03:26:59;13.43;;;7.63;;
36995;SDS011;22905;50.340;10.776;2023-04-06T03:32:00;18.27;;;8.10;;
36995;SDS011;22905;50.340;10.776;2023-04-06T03:37:00;12.98;;;7.63;;
36995;SDS011;22905;50.340;10.776;2023-04-06T03:42:00;10.57;;;7.82;;
36995;SDS011;22905;50.340;10.776;2023-04-06T03:47:01;17.27;;;7.40;;
36995;SDS011;22905;50.340;10.776;2023-04-06T03:52:02;13.38;;;8.00;;
36995;SDS011;22905;50.340;10.776;2023-04-06T03:57:03;13.77;;;7.82;;
36995;SDS011;22905;50.340;10.776;2023-04-06T04:02:04;22.13;;;8.23;;
36995;SDS011;22905;50.340;10.776;2023-04-06T04:07:05;11.93;;;7.20;;
36995;SDS011;22905;50.340;10.776;2023-04-06T04:12:05;15.53;;;7.83;;
36995;SDS011;22905;50.340;10.776;2023-04-06T04:17:06;13.65;;;7.68;;
36995;SDS011;22905;50.340;10.776;2023-04-06T04:22:06;17.77;;;7.10;;
36995;SDS011;22905;50.340;10.776;2023-04-06T04:27:06;20.20;;;9.00;;
36995;SDS011;22905;50.340;10.776;2023-04-06T04:32:06;14.03;;;8.60;;
36995;SDS011;22905;50.340;10.776;2023-04-06T04:37:07;17.60;;;8.82;;
36995;SDS011;22905;50.340;10.776;2023-04-06T04:42:07;18.07;;;9.03;;
36995;SDS011;22905;50.340;10.776;2023-04-06T04:47:07;30.73;;;11.95;;
36995;SDS011;22905;50.340;10.776;2023-04-06T04:52:08;20.15;;;10.82;;
36995;SDS011;22905;50.340;10.776;2023-04-06T04:57:08;29.75;;;12.52;;
36995;SDS011;22905;50.340;10.776;2023-04-06T05:02:08;26.75;;;10.30;;
36995;SDS011;22905;50.340;10.776;2023-04-06T05:07:09;20.50;;;9.25;;
36995;SDS011;22905;50.340;10.776;2023-04-06T05:12:09;18.70;;;9.43;;
36995;SDS011;22905;50.340;10.776;2023-04-06T05:17:10;15.20;;;7.67;;
36995;SDS011;22905;50.340;10.776;2023-04-06T05:22:10;20.77;;;9.33;;
36995;SDS011;22905;50.340;10.776;2023-04-06T05:27:10;18.83;;;8.97;;
36995;SDS011;22905;50.340;10.776;2023-04-06T05:32:10;19.37;;;9.87;;
36995;SDS011;22905;50.340;10.776;2023-04-06T05:37:11;17.57;;;10.13;;
36995;SDS011;22905;50.340;10.776;2023-04-06T05:42:11;13.35;;;7.85;;
36995;SDS011;22905;50.340;10.776;2023-04-06T05:47:11;17.77;;;9.20;;
36995;SDS011;22905;50.340;10.776;2023-04-06T05:52:12;25.03;;;10.93;;
36995;SDS011;22905;50.340;10.776;2023-04-06T05:57:12;23.83;;;10.02;;
36995;SDS011;22905;50.340;10.776;2023-04-06T06:02:12;23.90;;;11.45;;
36995;SDS011;22905;50.340;10.776;2023-04-06T06:07:14;24.20;;;9.15;;
36995;SDS011;22905;50.340;10.776;2023-04-06T06:12:14;18.67;;;10.95;;
36995;SDS011;22905;50.340;10.776;2023-04-06T06:17:14;29.00;;;12.82;;
36995;SDS011;22905;50.340;10.776;2023-04-06T06:22:15;31.63;;;16.07;;
36995;SDS011;22905;50.340;10.776;2023-04-06T06:27:15;44.27;;;19.10;;
36995;SDS011;22905;50.340;10.776;2023-04-06T06:32:15;47.53;;;20.00;;
36995;SDS011;22905;50.340;10.776;2023-04-06T06:37:16;26.83;;;11.20;;
36995;SDS011;22905;50.340;10.776;2023-04-06T06:42:16;18.38;;;9.23;;
36995;SDS011;22905;50.340;10.776;2023-04-06T06:47:16;18.27;;;8.45;;
36995;SDS011;22905;50.340;10.776;2023-04-06T06:52:17;14.93;;;8.05;;
36995;SDS011;22905;50.340;10.776;2023-04-06T06:57:17;15.60;;;9.43;;
36995;SDS011;22905;50.340;10.776;2023-04-06T07:02:17;14.32;;;7.65;;
36995;SDS011;22905;50.340;10.776;2023-04-06T07:07:18;16.90;;;7.67;;
36995;SDS011;22905;50.340;10.776;2023-04-06T07:12:18;12.30;;;7.77;;
36995;SDS011;22905;50.340;10.776;2023-04-06T07:17:18;15.98;;;7.70;;
36995;SDS011;22905;50.340;10.776;2023-04-06T07:22:19;18.97;;;9.27;;
36995;SDS011;22905;50.340;10.776;2023-04-06T07:27:19;11.63;;;6.63;;
36995;SDS011;22905;50.340;10.776;2023-04-06T07:32:19;11.02;;;7.25;;
36995;SDS011;22905;50.340;10.776;2023-04-06T07:37:20;9.13;;;6.38;;
36995;SDS011;22905;50.340;10.776;2023-04-06T07:42:20;10.83;;;5.80;;
36995;SDS011;22905;50.340;10.776;2023-04-06T07:47:20;12.13;;;5.75;;
36995;SDS011;22905;50.340;10.776;2023-04-06T07:52:21;10.33;;;5.87;;
36995;SDS011;22905;50.340;10.776;2023-04-06T07:57:21;14.93;;;6.50;;
36995;SDS011;22905;50.340;10.776;2023-04-06T08:02:21;12.87;;;6.17;;
36995;SDS011;22905;50.340;10.776;2023-04-06T08:07:22;14.80;;;7.00;;
36995;SDS011;22905;50.340;10.776;2023-04-06T08:12:22;12.02;;;6.20;;
36995;SDS011;22905;50.340;10.776;2023-04-06T08:17:22;11.47;;;5.87;;
36995;SDS011;22905;50.340;10.776;2023-04-06T08:22:23;9.63;;;5.65;;
36995;SDS011;22905;50.340;10.776;2023-04-06T08:27:23;9.40;;;5.30;;
36995;SDS011;22905;50.340;10.776;2023-04-06T08:32:23;14.68;;;5.65;;
36995;SDS011;22905;50.340;10.776;2023-04-06T08:37:25;10.27;;;6.03;;
36995;SDS011;22905;50.340;10.776;2023-04-06T08:42:25;15.20;;;8.45;;
36995;SDS011;22905;50.340;10.776;2023-04-06T08:47:26;13.32;;;6.55;;
36995;SDS011;22905;50.340;10.776;2023-04-06T09:46:26;9.93;;;6.43;;
36995;SDS011;22905;50.340;10.776;2023-04-06T09:51:31;10.57;;;6.65;;
36995;SDS011;22905;50.340;10.776;2023-04-06T10:01:58;12.70;;;7.72;;
36995;SDS011;22905;50.340;10.776;2023-04-06T10:06:59;10.02;;;6.28;;
36995;SDS011;22905;50.340;10.776;2023-04-06T10:12:04;14.10;;;7.53;;
36995;SDS011;22905;50.340;10.776;2023-04-06T10:17:05;12.70;;;6.88;;
36995;SDS011;22905;50.340;10.776;2023-04-06T10:22:05;11.15;;;7.38;;
36995;SDS011;22905;50.340;10.776;2023-04-06T10:27:08;14.50;;;8.15;;
36995;SDS011;22905;50.340;10.776;2023-04-06T10:32:11;16.70;;;9.07;;
36995;SDS011;22905;50.340;10.776;2023-04-06T10:37:15;13.65;;;7.82;;
36995;SDS011;22905;50.340;10.776;2023-04-06T10:42:16;9.98;;;6.78;;
36995;SDS011;22905;50.340;10.776;2023-04-06T10:47:16;14.70;;;8.53;;
36995;SDS011;22905;50.340;10.776;2023-04-06T10:52:17;11.55;;;7.65;;
36995;SDS011;22905;50.340;10.776;2023-04-06T10:57:27;12.43;;;7.65;;
36995;SDS011;22905;50.340;10.776;2023-04-06T11:02:28;16.15;;;9.27;;
36995;SDS011;22905;50.340;10.776;2023-04-06T11:07:28;13.03;;;8.47;;
36995;SDS011;22905;50.340;10.776;2023-04-06T11:12:30;13.68;;;8.95;;
36995;SDS011;22905;50.340;10.776;2023-04-06T11:17:33;10.67;;;7.13;;
36995;SDS011;22905;50.340;10.776;2023-04-06T11:22:35;14.50;;;7.57;;
36995;SDS011;22905;50.340;10.776;2023-04-06T11:27:36;14.57;;;9.05;;
36995;SDS011;22905;50.340;10.776;2023-04-06T11:32:40;15.50;;;8.33;;
36995;SDS011;22905;50.340;10.776;2023-04-06T11:37:44;13.32;;;7.43;;
36995;SDS011;22905;50.340;10.776;2023-04-06T11:42:44;13.45;;;8.07;;
36995;SDS011;22905;50.340;10.776;2023-04-06T11:47:56;13.30;;;8.13;;
36995;SDS011;22905;50.340;10.776;2023-04-06T11:52:58;14.90;;;8.82;;
36995;SDS011;22905;50.340;10.776;2023-04-06T11:58:05;12.90;;;7.18;;
36995;SDS011;22905;50.340;10.776;2023-04-06T12:03:06;15.18;;;8.05;;
36995;SDS011;22905;50.340;10.776;2023-04-06T12:08:07;16.48;;;7.90;;
36995;SDS011;22905;50.340;10.776;2023-04-06T12:13:07;11.85;;;8.20;;
36995;SDS011;22905;50.340;10.776;2023-04-06T12:18:07;15.90;;;9.23;;
36995;SDS011;22905;50.340;10.776;2023-04-06T12:23:08;16.23;;;8.73;;
36995;SDS011;22905;50.340;10.776;2023-04-06T12:28:08;14.32;;;8.65;;
36995;SDS011;22905;50.340;10.776;2023-04-06T12:33:09;12.43;;;7.95;;
36995;SDS011;22905;50.340;10.776;2023-04-06T12:38:09;14.45;;;8.60;;
36995;SDS011;22905;50.340;10.776;2023-04-06T12:43:10;14.20;;;8.02;;
36995;SDS011;22905;50.340;10.776;2023-04-06T12:48:10;14.82;;;8.88;;
36995;SDS011;22905;50.340;10.776;2023-04-06T12:53:10;14.55;;;8.00;;
36995;SDS011;22905;50.340;10.776;2023-04-06T12:58:11;15.07;;;7.85;;
36995;SDS011;22905;50.340;10.776;2023-04-06T13:03:11;12.57;;;7.60;;
36995;SDS011;22905;50.340;10.776;2023-04-06T13:08:12;18.13;;;8.83;;
36995;SDS011;22905;50.340;10.776;2023-04-06T13:13:14;16.50;;;8.88;;
36995;SDS011;22905;50.340;10.776;2023-04-06T13:18:15;12.75;;;6.88;;
36995;SDS011;22905;50.340;10.776;2023-04-06T13:23:16;9.02;;;6.07;;
36995;SDS011;22905;50.340;10.776;2023-04-06T13:28:16;10.00;;;6.00;;
36995;SDS011;22905;50.340;10.776;2023-04-06T13:33:17;12.63;;;6.78;;
36995;SDS011;22905;50.340;10.776;2023-04-06T13:38:17;10.48;;;6.80;;
36995;SDS011;22905;50.340;10.776;2023-04-06T13:43:17;11.20;;;6.67;;
36995;SDS011;22905;50.340;10.776;2023-04-06T13:48:21;11.65;;;7.15;;
36995;SDS011;22905;50.340;10.776;2023-04-06T13:53:21;8.75;;;5.78;;
36995;SDS011;22905;50.340;10.776;2023-04-06T13:58:22;12.63;;;7.07;;
36995;SDS011;22905;50.340;10.776;2023-04-06T14:03:22;13.93;;;6.47;;
36995;SDS011;22905;50.340;10.776;2023-04-06T14:08:22;12.52;;;8.43;;
36995;SDS011;22905;50.340;10.776;2023-04-06T14:13:23;15.10;;;8.10;;
36995;SDS011;22905;50.340;10.776;2023-04-06T14:18:23;14.73;;;7.63;;
36995;SDS011;22905;50.340;10.776;2023-04-06T14:23:23;12.03;;;6.93;;
36995;SDS011;22905;50.340;10.776;2023-04-06T14:28:26;12.38;;;7.18;;
36995;SDS011;22905;50.340;10.776;2023-04-06T14:33:30;9.93;;;7.15;;
36995;SDS011;22905;50.340;10.776;2023-04-06T14:38:33;14.25;;;7.68;;
36995;SDS011;22905;50.340;10.776;2023-04-06T14:43:33;11.07;;;6.80;;
36995;SDS011;22905;50.340;10.776;2023-04-06T14:48:34;10.73;;;7.38;;
36995;SDS011;22905;50.340;10.776;2023-04-06T14:53:35;14.77;;;6.45;;
36995;SDS011;22905;50.340;10.776;2023-04-06T14:58:35;10.80;;;6.70;;
36995;SDS011;22905;50.340;10.776;2023-04-06T15:03:35;12.00;;;6.70;;
36995;SDS011;22905;50.340;10.776;2023-04-06T15:08:36;12.32;;;7.68;;
36995;SDS011;22905;50.340;10.776;2023-04-06T15:13:36;12.35;;;6.97;;
36995;SDS011;22905;50.340;10.776;2023-04-06T15:18:37;13.80;;;7.85;;
36995;SDS011;22905;50.340;10.776;2023-04-06T15:23:38;9.20;;;6.13;;
36995;SDS011;22905;50.340;10.776;2023-04-06T15:28:38;10.77;;;6.30;;
36995;SDS011;22905;50.340;10.776;2023-04-06T15:33:38;16.80;;;8.27;;
36995;SDS011;22905;50.340;10.776;2023-04-06T15:38:39;11.68;;;6.68;;
36995;SDS011;22905;50.340;10.776;2023-04-06T15:43:39;14.23;;;7.20;;
36995;SDS011;22905;50.340;10.776;2023-04-06T15:48:40;12.52;;;6.60;;
36995;SDS011;22905;50.340;10.776;2023-04-06T15:53:41;14.10;;;7.65;;
36995;SDS011;22905;50.340;10.776;2023-04-06T15:58:41;9.80;;;6.25;;
36995;SDS011;22905;50.340;10.776;2023-04-06T16:03:41;11.70;;;7.20;;
36995;SDS011;22905;50.340;10.776;2023-04-06T16:08:42;10.27;;;6.25;;
36995;SDS011;22905;50.340;10.776;2023-04-06T16:13:42;9.90;;;6.20;;
36995;SDS011;22905;50.340;10.776;2023-04-06T16:18:43;9.60;;;5.63;;
36995;SDS011;22905;50.340;10.776;2023-04-06T16:23:44;7.27;;;4.97;;
36995;SDS011;22905;50.340;10.776;2023-04-06T16:28:45;12.40;;;6.73;;
36995;SDS011;22905;50.340;10.776;2023-04-06T16:33:47;9.25;;;5.93;;
36995;SDS011;22905;50.340;10.776;2023-04-06T16:38:48;12.90;;;6.85;;
36995;SDS011;22905;50.340;10.776;2023-04-06T16:43:48;10.57;;;6.13;;
36995;SDS011;22905;50.340;10.776;2023-04-06T16:48:48;8.70;;;5.00;;
36995;SDS011;22905;50.340;10.776;2023-04-06T16:53:49;17.00;;;8.30;;
36995;SDS011;22905;50.340;10.776;2023-04-06T16:58:50;14.60;;;7.88;;
36995;SDS011;22905;50.340;10.776;2023-04-06T17:03:50;16.77;;;8.90;;
36995;SDS011;22905;50.340;10.776;2023-04-06T17:08:51;12.00;;;7.55;;
36995;SDS011;22905;50.340;10.776;2023-04-06T17:13:52;13.82;;;8.50;;
36995;SDS011;22905;50.340;10.776;2023-04-06T17:18:53;12.50;;;7.37;;
36995;SDS011;22905;50.340;10.776;2023-04-06T17:23:53;14.93;;;9.65;;
36995;SDS011;22905;50.340;10.776;2023-04-06T17:28:59;25.67;;;14.53;;
36995;SDS011;22905;50.340;10.776;2023-04-06T17:33:59;19.33;;;11.60;;
36995;SDS011;22905;50.340;10.776;2023-04-06T17:39:00;21.73;;;13.30;;
36995;SDS011;22905;50.340;10.776;2023-04-06T17:44:00;27.02;;;13.57;;
36995;SDS011;22905;50.340;10.776;2023-04-06T17:49:01;24.23;;;12.50;;
36995;SDS011;22905;50.340;10.776;2023-04-06T17:54:01;30.97;;;12.87;;
36995;SDS011;22905;50.340;10.776;2023-04-06T17:59:01;32.50;;;13.67;;
36995;SDS011;22905;50.340;10.776;2023-04-06T18:04:02;29.08;;;13.65;;
36995;SDS011;22905;50.340;10.776;2023-04-06T18:09:02;28.00;;;12.82;;
36995;SDS011;22905;50.340;10.776;2023-04-06T18:14:06;34.13;;;15.10;;
36995;SDS011;22905;50.340;10.776;2023-04-06T18:19:07;28.17;;;14.75;;
36995;SDS011;22905;50.340;10.776;2023-04-06T18:24:07;27.35;;;12.15;;
36995;SDS011;22905;50.340;10.776;2023-04-06T18:29:08;26.73;;;11.43;;
36995;SDS011;22905;50.340;10.776;2023-04-06T18:34:08;17.88;;;9.23;;
36995;SDS011;22905;50.340;10.776;2023-04-06T18:39:08;18.95;;;8.35;;
36995;SDS011;22905;50.340;10.776;2023-04-06T18:44:09;13.23;;;7.72;;
36995;SDS011;22905;50.340;10.776;2023-04-06T18:49:10;15.40;;;8.40;;
36995;SDS011;22905;50.340;10.776;2023-04-06T18:54:10;13.95;;;8.25;;
36995;SDS011;22905;50.340;10.776;2023-04-06T18:59:10;21.40;;;8.35;;
36995;SDS011;22905;50.340;10.776;2023-04-06T19:04:12;15.50;;;8.32;;
36995;SDS011;22905;50.340;10.776;2023-04-06T19:09:12;18.15;;;10.15;;
36995;SDS011;22905;50.340;10.776;2023-04-06T19:14:12;20.27;;;8.97;;
36995;SDS011;22905;50.340;10.776;2023-04-06T19:19:13;27.13;;;12.80;;
36995;SDS011;22905;50.340;10.776;2023-04-06T19:24:13;47.17;;;20.87;;
36995;SDS011;22905;50.340;10.776;2023-04-06T19:29:13;37.15;;;16.23;;
36995;SDS011;22905;50.340;10.776;2023-04-06T19:34:14;38.53;;;13.15;;
36995;SDS011;22905;50.340;10.776;2023-04-06T19:39:16;31.15;;;15.10;;
36995;SDS011;22905;50.340;10.776;2023-04-06T19:44:17;25.73;;;12.32;;
36995;SDS011;22905;50.340;10.776;2023-04-06T19:49:17;23.27;;;11.10;;
36995;SDS011;22905;50.340;10.776;2023-04-06T19:54:17;17.80;;;9.70;;
36995;SDS011;22905;50.340;10.776;2023-04-06T19:59:18;21.77;;;9.67;;
36995;SDS011;22905;50.340;10.776;2023-04-06T20:04:20;15.73;;;8.87;;
36995;SDS011;22905;50.340;10.776;2023-04-06T20:09:20;20.67;;;11.33;;
36995;SDS011;22905;50.340;10.776;2023-04-06T20:14:21;40.58;;;13.70;;
36995;SDS011;22905;50.340;10.776;2023-04-06T20:19:22;110.70;;;33.10;;
36995;SDS011;22905;50.340;10.776;2023-04-06T20:24:22;115.33;;;33.33;;
36995;SDS011;22905;50.340;10.776;2023-04-06T20:29:22;71.82;;;21.75;;
36995;SDS011;22905;50.340;10.776;2023-04-06T20:34:22;63.47;;;20.63;;
36995;SDS011;22905;50.340;10.776;2023-04-06T20:39:25;64.23;;;19.53;;
36995;SDS011;22905;50.340;10.776;2023-04-06T20:44:29;64.60;;;18.63;;
36995;SDS011;22905;50.340;10.776;2023-04-06T20:49:30;45.70;;;18.85;;
36995;SDS011;22905;50.340;10.776;2023-04-06T20:54:30;48.03;;;19.50;;
36995;SDS011;22905;50.340;10.776;2023-04-06T20:59:30;40.70;;;15.87;;
36995;SDS011;22905;50.340;10.776;2023-04-06T21:04:32;33.20;;;12.90;;
36995;SDS011;22905;50.340;10.776;2023-04-06T21:09:34;28.23;;;11.75;;
36995;SDS011;22905;50.340;10.776;2023-04-06T21:14:35;20.23;;;10.07;;
36995;SDS011;22905;50.340;10.776;2023-04-06T21:19:35;24.75;;;9.90;;
36995;SDS011;22905;50.340;10.776;2023-04-06T21:24:36;22.02;;;10.93;;
36995;SDS011;22905;50.340;10.776;2023-04-06T21:29:36;60.90;;;23.00;;
36995;SDS011;22905;50.340;10.776;2023-04-06T21:34:36;46.90;;;19.73;;
36995;SDS011;22905;50.340;10.776;2023-04-06T21:39:37;38.30;;;13.77;;
36995;SDS011;22905;50.340;10.776;2023-04-06T21:44:37;23.27;;;11.13;;
36995;SDS011;22905;50.340;10.776;2023-04-06T21:49:37;31.23;;;10.55;;
36995;SDS011;22905;50.340;10.776;2023-04-06T21:54:37;18.38;;;8.82;;
36995;SDS011;22905;50.340;10.776;2023-04-06T21:59:38;22.38;;;11.32;;
36995;SDS011;22905;50.340;10.776;2023-04-06T22:04:38;21.47;;;9.07;;
36995;SDS011;22905;50.340;10.776;2023-04-06T22:09:38;27.20;;;12.23;;
36995;SDS011;22905;50.340;10.776;2023-04-06T22:14:39;51.03;;;17.23;;
36995;SDS011;22905;50.340;10.776;2023-04-06T22:19:39;41.30;;;16.60;;
36995;SDS011;22905;50.340;10.776;2023-04-06T22:24:40;42.50;;;17.17;;
36995;SDS011;22905;50.340;10.776;2023-04-06T22:29:40;39.60;;;15.57;;
36995;SDS011;22905;50.340;10.776;2023-04-06T22:34:40;39.10;;;16.42;;
36995;SDS011;22905;50.340;10.776;2023-04-06T22:39:41;39.30;;;14.30;;
36995;SDS011;22905;50.340;10.776;2023-04-06T22:44:41;28.58;;;11.65;;
36995;SDS011;22905;50.340;10.776;2023-04-06T22:49:41;30.05;;;11.70;;
36995;SDS011;22905;50.340;10.776;2023-04-06T22:54:42;30.05;;;11.75;;
36995;SDS011;22905;50.340;10.776;2023-04-06T22:59:42;21.63;;;11.17;;
36995;SDS011;22905;50.340;10.776;2023-04-06T23:04:42;26.45;;;10.73;;
36995;SDS011;22905;50.340;10.776;2023-04-06T23:09:45;20.00;;;9.90;;
36995;SDS011;22905;50.340;10.776;2023-04-06T23:14:45;21.33;;;10.65;;
36995;SDS011;22905;50.340;10.776;2023-04-06T23:19:46;19.65;;;10.43;;
36995;SDS011;22905;50.340;10.776;2023-04-06T23:24:46;19.07;;;10.90;;
36995;SDS011;22905;50.340;10.776;2023-04-06T23:29:48;20.10;;;10.00;;
36995;SDS011;22905;50.340;10.776;2023-04-06T23:34:48;19.52;;;9.23;;
36995;SDS011;22905;50.340;10.776;2023-04-06T23:39:49;17.33;;;10.30;;
36995;SDS011;22905;50.340;10.776;2023-04-06T23:44:49;17.42;;;8.60;;
36995;SDS011;22905;50.340;10.776;2023-04-06T23:49:50;26.65;;;10.82;;
36995;SDS011;22905;50.340;10.776;2023-04-06T23:54:50;27.08;;;10.35;;
36995;SDS011;22905;50.340;10.776;2023-04-06T23:59:51;21.27;;;10.25;;
